createdAt,value
2023-05-01T00:02:02.801Z,96346.41
2023-05-01T00:04:44.141Z,96373.88
2023-05-01T00:07:12.614Z,96388.28
2023-05-01T00:09:41.017Z,96380.72
2023-05-01T00:12:14.116Z,96379.59
2023-05-01T00:14:41.961Z,96383.28
2023-05-01T00:17:15.276Z,96377.97
2023-05-01T00:19:47.139Z,96375.72
2023-05-01T00:22:17.189Z,96359.31
2023-05-01T00:24:48.026Z,96363.59
2023-05-01T00:27:16.553Z,96369.56
2023-05-01T00:29:48.631Z,96355.06
2023-05-01T00:32:18.538Z,96356.94
2023-05-01T00:34:48.650Z,96356.03
2023-05-01T00:37:21.251Z,96342.25
2023-05-01T00:39:49.517Z,96344.50
2023-05-01T00:42:17.716Z,96349.53
2023-05-01T00:44:47.662Z,96336.69
2023-05-01T00:47:24.745Z,96343.06
2023-05-01T00:49:56.984Z,96328.41
2023-05-01T00:52:25.838Z,96335.31
2023-05-01T00:54:56.598Z,96338.72
2023-05-01T00:57:24.922Z,96298.56
2023-05-01T00:59:53.435Z,96338.19
2023-05-01T01:02:22.643Z,96331.38
2023-05-01T01:04:51.511Z,96336.06
2023-05-01T01:07:25.415Z,96266.31
2023-05-01T01:10:02.381Z,96321.72
2023-05-01T01:12:36.062Z,96318.13
2023-05-01T01:15:12.676Z,96314.88
2023-05-01T01:17:44.760Z,96310.13
2023-05-01T01:20:23.614Z,96308.91
2023-05-01T01:23:05.163Z,96302.16
2023-05-01T01:26:00.724Z,96299.84
2023-05-01T01:28:59.004Z,96294.78
2023-05-01T01:31:34.880Z,96306.06
2023-05-01T01:34:07.291Z,96300.25
2023-05-01T01:36:44.480Z,96294.16
2023-05-01T01:39:28.296Z,96294.44
2023-05-01T01:42:03.851Z,96298.94
2023-05-01T01:44:36.150Z,96300.16
2023-05-01T01:47:07.313Z,96295.88
2023-05-01T01:49:51.603Z,96297.78
2023-05-01T01:52:27.063Z,96283.19
2023-05-01T01:54:58.780Z,96287.69
2023-05-01T01:57:27.950Z,96300.59
2023-05-01T02:00:00.851Z,96297.91
2023-05-01T02:02:41.161Z,96285.53
2023-05-01T02:05:15.764Z,96287.09
2023-05-01T02:07:50.389Z,96286.38
2023-05-01T02:10:20.129Z,96278.34
2023-05-01T02:12:55.136Z,96280.16
2023-05-01T02:15:28.348Z,96276.16
2023-05-01T02:17:57.357Z,96278.03
2023-05-01T02:20:28.520Z,96282.50
2023-05-01T02:22:59.604Z,96248.78
2023-05-01T02:25:29.714Z,96272.53
2023-05-01T02:28:12.929Z,96273.25
2023-05-01T02:30:42.693Z,96275.09
2023-05-01T02:33:11.332Z,96273.63
2023-05-01T02:35:53.049Z,96257.75
2023-05-01T02:38:24.594Z,96263.72
2023-05-01T02:40:56.190Z,96257.06
2023-05-01T02:43:25.003Z,96246.84
2023-05-01T02:45:54.133Z,96260.44
2023-05-01T02:48:31.417Z,96259.22
2023-05-01T02:51:02.418Z,96248.94
2023-05-01T02:53:34.298Z,96238.88
2023-05-01T02:56:05.665Z,96215.88
2023-05-01T02:58:34.386Z,96247.00
2023-05-01T03:01:02.572Z,96250.41
2023-05-01T03:03:31.041Z,96244.72
2023-05-01T03:06:00.663Z,96162.44
2023-05-01T03:08:28.453Z,96240.53
2023-05-01T03:10:56.307Z,96211.84
2023-05-01T03:13:24.815Z,96243.84
2023-05-01T03:15:53.476Z,96236.44
2023-05-01T03:18:21.375Z,96226.88
2023-05-01T03:20:53.894Z,96228.06
2023-05-01T03:23:24.652Z,96234.03
2023-05-01T03:25:57.008Z,96076.91
2023-05-01T03:28:25.275Z,96231.16
2023-05-01T03:30:54.490Z,96215.56
2023-05-01T03:33:26.533Z,96227.66
2023-05-01T03:36:02.302Z,96245.34
2023-05-01T03:38:32.492Z,96226.59
2023-05-01T03:41:02.861Z,96220.09
2023-05-01T03:43:36.114Z,96214.59
2023-05-01T03:46:21.097Z,96216.03
2023-05-01T03:49:00.151Z,96204.16
2023-05-01T03:51:41.061Z,96204.88
2023-05-01T03:54:10.892Z,96204.16
2023-05-01T03:56:50.818Z,96203.22
2023-05-01T03:59:18.960Z,96208.47
2023-05-01T04:01:49.136Z,96210.59
2023-05-01T04:04:17.522Z,96208.19
2023-05-01T04:06:52.030Z,96209.66
2023-05-01T04:09:24.963Z,96204.53
2023-05-01T04:11:56.063Z,96210.56
2023-05-01T04:14:23.837Z,96208.59
2023-05-01T04:16:56.026Z,96205.19
2023-05-01T04:19:26.303Z,96211.72
2023-05-01T04:21:57.281Z,96202.88
2023-05-01T04:24:26.818Z,96202.31
2023-05-01T04:26:58.544Z,96209.66
2023-05-01T04:29:26.635Z,96205.53
2023-05-01T04:31:54.855Z,96194.31
2023-05-01T04:34:29.411Z,96191.00
2023-05-01T04:36:59.291Z,96175.47
2023-05-01T04:39:32.030Z,96214.34
2023-05-01T04:42:00.098Z,96210.03
2023-05-01T04:44:27.865Z,96208.06
2023-05-01T04:46:55.866Z,96210.09
2023-05-01T04:49:26.749Z,96205.78
2023-05-01T04:51:55.051Z,96208.44
2023-05-01T04:54:23.234Z,96208.59
2023-05-01T04:56:58.970Z,96203.06
2023-05-01T04:59:29.443Z,96216.25
2023-05-01T05:01:58.572Z,96187.88
2023-05-01T05:04:29.578Z,96207.53
2023-05-01T05:07:00.238Z,96212.69
2023-05-01T05:09:32.457Z,96210.09
2023-05-01T05:12:03.748Z,96212.69
2023-05-01T05:14:32.122Z,96213.84
2023-05-01T05:17:00.394Z,96216.63
2023-05-01T05:19:29.250Z,96212.09
2023-05-01T05:22:15.330Z,96207.72
2023-05-01T05:24:43.243Z,96215.88
2023-05-01T05:27:13.225Z,96208.53
2023-05-01T05:29:45.114Z,96134.34
2023-05-01T05:32:15.273Z,96218.41
2023-05-01T05:34:43.743Z,96221.94
2023-05-01T05:37:14.424Z,96221.56
2023-05-01T05:39:44.391Z,96216.75
2023-05-01T05:42:14.411Z,96218.53
2023-05-01T05:44:48.598Z,96213.78
2023-05-01T05:47:16.347Z,96213.94
2023-05-01T05:49:58.656Z,96205.88
2023-05-01T05:52:29.535Z,96172.09
2023-05-01T05:55:01.520Z,96225.31
2023-05-01T05:57:47.863Z,96210.06
2023-05-01T06:00:17.212Z,96219.09
2023-05-01T06:02:45.366Z,96218.25
2023-05-01T06:05:20.957Z,96213.22
2023-05-01T06:07:56.836Z,96197.81
2023-05-01T06:10:25.115Z,96222.34
2023-05-01T06:13:05.451Z,96228.34
2023-05-01T06:15:44.225Z,96215.91
2023-05-01T06:18:12.858Z,96213.72
2023-05-01T06:20:40.865Z,96213.59
2023-05-01T06:23:11.515Z,96209.53
2023-05-01T06:25:44.417Z,96180.06
2023-05-01T06:28:13.528Z,96210.22
2023-05-01T06:30:44.235Z,96207.19
2023-05-01T06:33:16.008Z,96215.31
2023-05-01T06:35:43.855Z,96205.84
2023-05-01T06:38:17.492Z,96137.06
2023-05-01T06:40:47.255Z,96218.16
2023-05-01T06:43:20.754Z,96220.44
2023-05-01T06:45:48.978Z,96220.13
2023-05-01T06:48:17.478Z,96231.22
2023-05-01T06:50:45.216Z,96219.47
2023-05-01T06:53:13.530Z,96231.59
2023-05-01T06:55:42.001Z,96233.81
2023-05-01T06:58:22.779Z,96230.16
2023-05-01T07:00:55.083Z,96246.06
2023-05-01T07:03:27.739Z,96230.81
2023-05-01T07:06:02.514Z,96231.06
2023-05-01T07:08:30.851Z,96219.97
2023-05-01T07:11:00.213Z,96235.97
2023-05-01T07:13:28.376Z,96235.53
2023-05-01T07:16:00.971Z,96227.50
2023-05-01T07:18:32.204Z,96240.88
2023-05-01T07:21:04.623Z,96233.84
2023-05-01T07:23:32.715Z,96235.69
2023-05-01T07:26:01.469Z,96223.41
2023-05-01T07:28:31.098Z,96236.44
2023-05-01T07:31:12.134Z,96226.34
2023-05-01T07:33:45.662Z,96234.25
2023-05-01T07:36:17.045Z,96212.41
2023-05-01T07:38:47.121Z,96230.78
2023-05-01T07:41:17.427Z,96225.22
2023-05-01T07:43:48.918Z,96224.19
2023-05-01T07:46:27.313Z,96230.09
2023-05-01T07:48:55.438Z,96222.66
2023-05-01T07:51:23.343Z,96172.47
2023-05-01T07:53:54.289Z,96217.03
2023-05-01T07:56:24.575Z,96220.56
2023-05-01T07:58:59.542Z,96151.09
2023-05-01T08:01:34.436Z,96223.84
2023-05-01T08:04:03.914Z,96214.56
2023-05-01T08:06:35.123Z,96168.22
2023-05-01T08:09:02.942Z,96218.66
2023-05-01T08:11:31.230Z,96215.53
2023-05-01T08:13:59.577Z,96220.03
2023-05-01T08:16:28.986Z,96225.16
2023-05-01T08:18:59.985Z,96227.53
2023-05-01T08:21:30.321Z,96221.63
2023-05-01T08:24:00.972Z,96219.47
2023-05-01T08:26:52.438Z,96217.94
2023-05-01T08:29:22.817Z,96214.63
2023-05-01T08:31:59.504Z,96211.63
2023-05-01T08:34:27.279Z,96214.56
2023-05-01T08:36:55.919Z,96196.56
2023-05-01T08:39:24.183Z,96201.63
2023-05-01T08:41:54.298Z,96211.66
2023-05-01T08:44:26.192Z,96201.13
2023-05-01T08:47:06.656Z,96166.97
2023-05-01T08:49:37.711Z,96202.22
2023-05-01T08:52:10.180Z,96177.53
2023-05-01T08:54:41.043Z,96191.06
2023-05-01T08:57:13.001Z,96197.09
2023-05-01T08:59:42.067Z,96200.34
2023-05-01T09:02:14.685Z,96191.06
2023-05-01T09:04:46.231Z,96202.22
2023-05-01T09:07:18.314Z,96197.31
2023-05-01T09:09:51.627Z,96199.38
2023-05-01T09:12:24.448Z,96201.94
2023-05-01T09:14:53.345Z,96205.88
2023-05-01T09:17:24.684Z,96193.38
2023-05-01T09:19:52.686Z,96192.00
2023-05-01T09:22:24.091Z,96180.28
2023-05-01T09:24:54.518Z,96185.13
2023-05-01T09:27:25.678Z,96191.69
2023-05-01T09:29:54.024Z,96191.03
2023-05-01T09:32:28.865Z,96201.47
2023-05-01T09:35:11.382Z,96188.34
2023-05-01T09:37:39.908Z,96163.63
2023-05-01T09:40:12.488Z,96158.28
2023-05-01T09:42:45.100Z,96192.31
2023-05-01T09:45:28.109Z,96196.03
2023-05-01T09:48:11.179Z,96193.16
2023-05-01T09:50:42.738Z,96173.97
2023-05-01T09:53:12.038Z,96196.03
2023-05-01T09:55:50.764Z,96191.34
2023-05-01T09:58:37.277Z,96189.50
2023-05-01T10:01:07.308Z,96197.63
2023-05-01T10:03:40.755Z,96198.00
2023-05-01T10:06:10.386Z,96196.88
2023-05-01T10:08:49.161Z,96196.69
2023-05-01T10:11:24.563Z,96124.84
2023-05-01T10:14:09.492Z,96199.13
2023-05-01T10:16:38.915Z,96204.31
2023-05-01T10:19:12.741Z,96204.63
2023-05-01T10:21:46.782Z,96208.41
2023-05-01T10:24:23.066Z,96198.28
2023-05-01T10:26:52.144Z,96191.66
2023-05-01T10:29:30.595Z,96200.97
2023-05-01T10:32:01.890Z,96206.31
2023-05-01T10:34:33.027Z,96214.94
2023-05-01T10:37:07.219Z,96163.16
2023-05-01T10:39:50.077Z,96210.81
2023-05-01T10:42:21.798Z,96206.84
2023-05-01T10:44:52.034Z,96204.50
2023-05-01T10:47:52.055Z,96210.25
2023-05-01T10:50:21.728Z,96212.97
2023-05-01T10:53:21.672Z,96167.91
2023-05-01T10:55:52.668Z,96205.19
2023-05-01T10:58:57.337Z,96206.84
2023-05-01T11:01:34.259Z,96207.91
2023-05-01T11:04:06.419Z,96204.63
2023-05-01T11:06:41.783Z,96188.06
2023-05-01T11:09:37.055Z,96203.34
2023-05-01T11:12:06.612Z,96194.69
2023-05-01T11:15:08.642Z,96204.47
2023-05-01T11:17:55.918Z,96209.88
2023-05-01T11:20:52.170Z,96203.34
2023-05-01T11:23:38.920Z,96193.56
2023-05-01T11:26:07.111Z,96202.75
2023-05-01T11:28:38.631Z,96194.22
2023-05-01T11:31:14.410Z,96207.69
2023-05-01T11:33:59.807Z,96209.09
2023-05-01T11:36:28.820Z,96182.91
2023-05-01T11:39:00.224Z,96198.34
2023-05-01T11:41:29.992Z,96194.72
2023-05-01T11:44:00.417Z,96164.59
2023-05-01T11:46:29.965Z,96193.38
2023-05-01T11:49:02.504Z,96187.41
2023-05-01T11:51:32.640Z,96171.84
2023-05-01T11:54:03.051Z,96192.91
2023-05-01T11:56:35.213Z,96185.50
2023-05-01T11:59:11.773Z,96182.72
2023-05-01T12:01:45.848Z,96161.59
2023-05-01T12:04:20.096Z,96147.38
2023-05-01T12:06:48.479Z,96171.47
2023-05-01T12:09:31.725Z,96175.13
2023-05-01T12:12:04.256Z,96158.88
2023-05-01T12:14:35.120Z,96172.41
2023-05-01T12:17:04.550Z,96175.28
2023-05-01T12:19:38.722Z,96183.13
2023-05-01T12:22:07.817Z,96190.09
2023-05-01T12:24:39.821Z,96187.19
2023-05-01T12:27:11.036Z,96153.34
2023-05-01T12:29:42.427Z,96194.25
2023-05-01T12:32:11.111Z,96193.31
2023-05-01T12:34:39.149Z,96199.34
2023-05-01T12:37:07.217Z,96205.88
2023-05-01T12:39:51.680Z,95899.88
2023-05-01T12:42:22.378Z,96215.78
2023-05-01T12:45:04.326Z,96212.25
2023-05-01T12:47:38.156Z,96217.69
2023-05-01T12:50:09.987Z,96214.91
2023-05-01T12:52:38.272Z,96222.38
2023-05-01T12:55:14.545Z,96224.03
2023-05-01T12:57:59.489Z,96225.88
2023-05-01T13:00:27.533Z,96220.34
2023-05-01T13:02:56.078Z,96189.19
2023-05-01T13:05:23.855Z,96219.28
2023-05-01T13:07:58.158Z,96203.16
2023-05-01T13:10:36.555Z,96218.00
2023-05-01T13:13:08.296Z,96219.84
2023-05-01T13:15:37.629Z,96202.75
2023-05-01T13:18:14.750Z,96203.47
2023-05-01T13:20:43.160Z,96201.88
2023-05-01T13:23:11.851Z,96199.34
2023-05-01T13:25:45.017Z,96202.00
2023-05-01T13:28:23.532Z,96194.22
2023-05-01T13:30:51.446Z,96197.84
2023-05-01T13:33:22.216Z,96193.53
2023-05-01T13:35:55.894Z,96197.94
2023-05-01T13:38:26.578Z,96204.00
2023-05-01T13:41:00.312Z,96198.44
2023-05-01T13:43:29.287Z,96189.66
2023-05-01T13:46:00.371Z,96190.66
2023-05-01T13:48:33.265Z,96192.09
2023-05-01T13:51:01.412Z,96068.38
2023-05-01T13:53:30.854Z,96151.03
2023-05-01T13:56:01.052Z,96187.09
2023-05-01T13:58:34.707Z,96179.41
2023-05-01T14:01:04.549Z,96181.75
2023-05-01T14:03:41.566Z,96177.47
2023-05-01T14:06:11.038Z,96174.69
2023-05-01T14:08:39.334Z,96164.53
2023-05-01T14:11:19.593Z,96158.22
2023-05-01T14:13:50.334Z,96148.97
2023-05-01T14:16:24.403Z,96163.41
2023-05-01T14:18:57.944Z,96164.75
2023-05-01T14:21:28.405Z,96153.75
2023-05-01T14:23:58.356Z,96156.84
2023-05-01T14:26:33.934Z,96158.78
2023-05-01T14:29:03.188Z,96171.47
2023-05-01T14:31:33.771Z,96180.25
2023-05-01T14:34:08.584Z,96150.66
2023-05-01T14:36:43.602Z,96174.47
2023-05-01T14:39:11.938Z,96185.47
2023-05-01T14:41:43.999Z,96132.09
2023-05-01T14:44:16.173Z,96187.88
2023-05-01T14:46:46.923Z,96185.38
2023-05-01T14:49:23.947Z,96193.25
2023-05-01T14:51:55.438Z,96200.38
2023-05-01T14:54:23.731Z,96204.97
2023-05-01T14:56:54.768Z,96206.09
2023-05-01T14:59:28.629Z,96201.53
2023-05-01T15:01:56.323Z,96199.47
2023-05-01T15:04:29.048Z,96214.38
2023-05-01T15:07:00.401Z,96212.38
2023-05-01T15:09:30.109Z,96200.16
2023-05-01T15:12:04.915Z,96211.25
2023-05-01T15:14:34.221Z,96213.84
2023-05-01T15:17:05.061Z,96217.50
2023-05-01T15:19:33.699Z,96208.13
2023-05-01T15:22:04.467Z,96205.75
2023-05-01T15:24:34.144Z,96209.56
2023-05-01T15:27:08.008Z,96215.41
2023-05-01T15:29:36.548Z,96214.63
2023-05-01T15:32:12.704Z,96200.97
2023-05-01T15:34:46.474Z,96174.25
2023-05-01T15:37:17.781Z,96225.63
2023-05-01T15:39:50.842Z,96223.91
2023-05-01T15:42:22.919Z,96225.41
2023-05-01T15:44:53.236Z,96212.75
2023-05-01T15:47:23.819Z,96215.47
2023-05-01T15:49:51.900Z,96226.34
2023-05-01T15:52:20.299Z,96239.66
2023-05-01T15:54:48.608Z,96249.44
2023-05-01T15:57:17.788Z,96270.78
2023-05-01T15:59:53.975Z,96273.09
2023-05-01T16:02:24.901Z,96272.13
2023-05-01T16:04:59.649Z,96293.66
2023-05-01T16:07:31.161Z,96299.28
2023-05-01T16:09:59.624Z,96289.72
2023-05-01T16:12:30.142Z,96293.25
2023-05-01T16:15:05.620Z,96278.91
2023-05-01T16:17:46.680Z,96271.84
2023-05-01T16:20:17.607Z,96226.31
2023-05-01T16:22:45.988Z,96250.47
2023-05-01T16:25:22.774Z,96242.66
2023-05-01T16:27:50.864Z,96249.63
2023-05-01T16:30:22.066Z,96235.41
2023-05-01T16:32:50.522Z,96238.22
2023-05-01T16:35:19.439Z,96243.41
2023-05-01T16:37:51.740Z,96236.31
2023-05-01T16:40:23.731Z,96223.16
2023-05-01T16:42:53.545Z,96231.16
2023-05-01T16:45:23.557Z,96233.44
2023-05-01T16:47:56.123Z,96237.00
2023-05-01T16:50:29.214Z,96229.91
2023-05-01T16:53:00.840Z,96242.38
2023-05-01T16:55:28.744Z,96241.38
2023-05-01T16:57:57.192Z,96241.44
2023-05-01T17:00:30.513Z,96246.84
2023-05-01T17:02:59.111Z,96245.78
2023-05-01T17:05:30.755Z,96249.34
2023-05-01T17:07:58.630Z,96238.53
2023-05-01T17:10:30.253Z,96257.59
2023-05-01T17:13:02.035Z,96269.38
2023-05-01T17:15:34.280Z,96267.91
2023-05-01T17:18:06.310Z,96267.97
2023-05-01T17:20:38.333Z,96279.97
2023-05-01T17:23:06.101Z,96277.06
2023-05-01T17:25:34.932Z,96278.19
2023-05-01T17:28:03.675Z,96283.38
2023-05-01T17:30:35.436Z,96274.97
2023-05-01T17:33:04.166Z,96278.28
2023-05-01T17:35:36.434Z,96274.03
2023-05-01T17:38:04.723Z,96271.13
2023-05-01T17:40:39.725Z,96270.84
2023-05-01T17:43:18.048Z,96276.25
2023-05-01T17:45:51.085Z,96253.53
2023-05-01T17:48:27.731Z,96306.72
2023-05-01T17:50:55.892Z,96289.16
2023-05-01T17:53:24.227Z,96297.63
2023-05-01T17:55:53.268Z,96297.06
2023-05-01T17:58:29.050Z,96302.94
2023-05-01T18:01:01.467Z,96310.63
2023-05-01T18:03:32.687Z,96312.16
2023-05-01T18:06:04.803Z,96310.69
2023-05-01T18:08:34.898Z,96301.59
2023-05-01T18:11:03.654Z,96310.38
2023-05-01T18:13:38.353Z,96319.19
2023-05-01T18:16:09.084Z,96311.16
2023-05-01T18:18:36.954Z,96309.00
2023-05-01T18:21:07.851Z,96327.94
2023-05-01T18:23:35.766Z,96325.47
2023-05-01T18:26:09.723Z,96309.91
2023-05-01T18:28:42.069Z,96325.56
2023-05-01T18:31:12.021Z,96312.75
2023-05-01T18:33:45.222Z,96316.56
2023-05-01T18:36:13.374Z,96336.84
2023-05-01T18:38:44.212Z,96332.00
2023-05-01T18:41:15.789Z,96300.50
2023-05-01T18:43:47.029Z,96327.69
2023-05-01T18:46:21.080Z,96292.53
2023-05-01T18:48:48.919Z,96330.34
2023-05-01T18:51:19.329Z,96301.44
2023-05-01T18:53:59.404Z,96339.44
2023-05-01T18:56:27.634Z,96342.69
2023-05-01T18:59:05.268Z,96353.25
2023-05-01T19:01:40.585Z,96358.53
2023-05-01T19:04:08.861Z,96359.59
2023-05-01T19:06:36.993Z,96369.47
2023-05-01T19:09:11.081Z,96369.75
2023-05-01T19:11:43.781Z,96369.38
2023-05-01T19:14:11.749Z,96371.53
2023-05-01T19:16:41.681Z,96372.75
2023-05-01T19:19:12.014Z,96386.38
2023-05-01T19:21:40.881Z,96376.16
2023-05-01T19:24:09.522Z,96378.56
2023-05-01T19:26:42.455Z,96381.19
2023-05-01T19:29:11.564Z,96383.94
2023-05-01T19:31:41.340Z,96385.16
2023-05-01T19:34:09.797Z,96392.50
2023-05-01T19:36:40.377Z,96390.25
2023-05-01T19:39:19.239Z,96343.47
2023-05-01T19:41:53.154Z,96401.38
2023-05-01T19:44:20.895Z,96397.31
2023-05-01T19:46:52.989Z,96400.56
2023-05-01T19:49:21.087Z,96403.25
2023-05-01T19:51:55.276Z,96390.03
2023-05-01T19:54:26.024Z,96403.06
2023-05-01T19:56:54.000Z,96422.81
2023-05-01T19:59:26.821Z,96406.25
2023-05-01T20:01:59.627Z,96402.56
2023-05-01T20:04:29.354Z,96413.69
2023-05-01T20:06:58.847Z,96415.41
2023-05-01T20:09:28.277Z,96424.44
2023-05-01T20:11:59.459Z,96431.25
2023-05-01T20:14:28.028Z,96435.28
2023-05-01T20:16:57.552Z,96433.78
2023-05-01T20:19:26.476Z,96436.53
2023-05-01T20:21:56.481Z,96438.09
2023-05-01T20:24:27.310Z,96441.00
2023-05-01T20:26:59.412Z,96445.16
2023-05-01T20:29:27.331Z,96442.03
2023-05-01T20:31:55.622Z,96447.53
2023-05-01T20:34:25.498Z,96430.69
2023-05-01T20:36:53.674Z,96458.25
2023-05-01T20:39:22.196Z,96448.88
2023-05-01T20:41:51.700Z,96457.28
2023-05-01T20:44:19.586Z,96459.31
2023-05-01T20:46:49.075Z,96333.50
2023-05-01T20:49:21.922Z,96459.84
2023-05-01T20:51:52.918Z,96462.63
2023-05-01T20:54:22.407Z,96456.19
2023-05-01T20:56:53.584Z,96461.59
2023-05-01T20:59:21.679Z,96463.66
2023-05-01T21:01:52.530Z,96439.63
2023-05-01T21:04:20.497Z,96428.38
2023-05-01T21:06:50.439Z,96459.72
2023-05-01T21:09:23.379Z,96465.03
2023-05-01T21:11:56.609Z,96464.97
2023-05-01T21:14:30.151Z,96472.19
2023-05-01T21:17:02.339Z,96486.97
2023-05-01T21:19:33.674Z,96481.16
2023-05-01T21:22:04.900Z,96484.72
2023-05-01T21:24:37.847Z,96483.53
2023-05-01T21:27:07.664Z,96482.88
2023-05-01T21:29:38.265Z,96483.28
2023-05-01T21:32:10.988Z,96482.13
2023-05-01T21:34:42.055Z,96436.88
2023-05-01T21:37:10.878Z,96484.53
2023-05-01T21:39:44.759Z,96486.06
2023-05-01T21:42:16.373Z,96525.63
2023-05-01T21:44:56.253Z,96483.91
2023-05-01T21:47:37.643Z,96480.34
2023-05-01T21:50:13.030Z,96486.22
2023-05-01T21:52:42.993Z,96483.38
2023-05-01T21:55:15.966Z,96485.94
2023-05-01T21:57:44.729Z,96462.28
2023-05-01T22:00:22.701Z,96476.91
2023-05-01T22:02:52.688Z,96486.34
2023-05-01T22:05:23.022Z,96491.66
2023-05-01T22:07:54.922Z,96493.63
2023-05-01T22:10:24.182Z,96494.25
2023-05-01T22:12:52.615Z,96493.25
2023-05-01T22:15:25.462Z,96505.88
2023-05-01T22:17:59.528Z,96496.44
2023-05-01T22:20:27.638Z,96480.31
2023-05-01T22:22:56.071Z,96493.66
2023-05-01T22:25:28.889Z,96495.41
2023-05-01T22:28:03.133Z,96460.16
2023-05-01T22:30:32.587Z,96515.31
2023-05-01T22:33:00.705Z,96516.97
2023-05-01T22:35:29.458Z,96520.72
2023-05-01T22:37:58.274Z,96523.94
2023-05-01T22:40:32.388Z,96512.78
2023-05-01T22:43:00.363Z,96523.09
2023-05-01T22:45:30.376Z,96521.19
2023-05-01T22:48:07.694Z,96518.97
2023-05-01T22:50:35.918Z,96535.06
2023-05-01T22:53:07.655Z,96528.91
2023-05-01T22:55:54.495Z,96527.78
2023-05-01T22:58:29.372Z,96524.66
2023-05-01T23:00:57.780Z,96530.47
2023-05-01T23:03:27.426Z,96533.13
2023-05-01T23:05:55.927Z,96527.84
2023-05-01T23:08:23.708Z,96526.44
2023-05-01T23:10:57.177Z,96539.53
2023-05-01T23:13:27.179Z,96510.41
2023-05-01T23:15:55.224Z,96540.59
2023-05-01T23:18:30.743Z,96553.34
2023-05-01T23:20:59.950Z,96547.72
2023-05-01T23:23:31.598Z,96536.91
2023-05-01T23:26:01.789Z,96549.34
2023-05-01T23:28:31.911Z,96551.97
2023-05-01T23:31:01.172Z,96534.66
2023-05-01T23:33:34.470Z,96528.09
2023-05-01T23:36:02.947Z,96540.47
2023-05-01T23:38:34.243Z,96532.50
2023-05-01T23:41:06.765Z,96532.63
2023-05-01T23:43:34.985Z,96502.72
2023-05-01T23:46:03.481Z,96533.47
2023-05-01T23:48:35.357Z,96543.28
2023-05-01T23:51:04.549Z,96539.53
2023-05-01T23:53:38.944Z,96538.00
2023-05-01T23:56:12.301Z,96529.34
2023-05-01T23:58:43.045Z,96526.97
